Time,TemperatureF,DewpointF,PressureIn,WindDirection,WindDirectionDegrees,WindSpeedMPH,WindSpeedGustMPH,Humidity,HourlyPrecipIn,Conditions,Clouds,dailyrainin,SolarRadiationWatts/m^2,SoftwareType,DateUTC
2013-05-23 00:02:00,42.0,38.0,-100.00,NE,34,7.0,20.0,86,0.00,,,0.12,0.000000,,2013-05-23 05:02:00,
2013-05-23 00:22:00,42.0,38.0,-100.00,NE,34,7.0,20.0,86,0.00,,,0.12,0.000000,,2013-05-23 05:22:00,
2013-05-23 00:32:00,42.0,38.0,-100.00,NE,34,7.0,20.0,86,0.00,,,0.12,0.000000,,2013-05-23 05:32:00,
2013-05-23 00:43:00,42.0,38.0,-100.00,NE,34,7.0,20.0,86,0.00,,,0.12,0.000000,,2013-05-23 05:43:00,
2013-05-23 00:52:00,42.0,38.0,-100.00,NE,34,7.0,20.0,86,0.00,,,0.12,0.000000,,2013-05-23 05:52:00,
2013-05-23 01:02:00,41.0,35.0,-100.00,NNE,32,8.0,18.0,79,0.00,,,0.11,0.000000,,2013-05-23 06:02:00,
2013-05-23 01:22:00,41.0,35.0,-100.00,NNE,32,8.0,18.0,79,0.00,,,0.11,0.000000,,2013-05-23 06:22:00,
2013-05-23 01:32:00,41.0,35.0,-100.00,NNE,32,8.0,18.0,79,0.00,,,0.11,0.000000,,2013-05-23 06:32:00,
2013-05-23 01:42:00,41.0,35.0,-100.00,NNE,32,8.0,18.0,79,0.00,,,0.11,0.000000,,2013-05-23 06:42:00,
2013-05-23 01:52:00,41.0,35.0,-100.00,NNE,32,8.0,18.0,79,0.00,,,0.11,0.000000,,2013-05-23 06:52:00,
2013-05-23 02:02:00,39.0,35.0,-100.00,NNE,28,5.0,18.0,85,0.00,,,0.11,0.000000,,2013-05-23 07:02:00,
2013-05-23 02:22:00,39.0,35.0,-100.00,NNE,28,5.0,18.0,85,0.00,,,0.11,0.000000,,2013-05-23 07:22:00,
2013-05-23 02:32:00,39.0,35.0,-100.00,NNE,28,5.0,18.0,85,0.00,,,0.11,0.000000,,2013-05-23 07:32:00,
2013-05-23 02:42:00,39.0,35.0,-100.00,NNE,28,5.0,18.0,85,0.00,,,0.11,0.000000,,2013-05-23 07:42:00,
2013-05-23 02:59:00,39.0,35.0,-100.00,NNE,28,5.0,18.0,85,0.00,,,0.11,0.000000,,2013-05-23 07:59:00,
2013-05-23 03:22:00,38.0,31.0,-100.00,NE,46,5.0,17.0,77,0.00,,,0.11,0.000000,,2013-05-23 08:22:00,
2013-05-23 03:32:00,38.0,31.0,-100.00,NE,46,5.0,17.0,77,0.00,,,0.11,0.000000,,2013-05-23 08:32:00,
2013-05-23 03:42:00,38.0,31.0,-100.00,NE,46,5.0,17.0,77,0.00,,,0.11,0.000000,,2013-05-23 08:42:00,
2013-05-23 03:52:00,38.0,31.0,-100.00,NE,46,5.0,17.0,77,0.00,,,0.11,0.000000,,2013-05-23 08:52:00,
2013-05-23 04:01:00,38.0,31.0,-100.00,NE,46,5.0,17.0,77,0.00,,,0.11,0.000000,,2013-05-23 09:01:00,
2013-05-23 04:02:00,38.0,31.0,-100.00,NE,34,6.0,16.0,76,0.00,,,0.11,0.000000,,2013-05-23 09:02:00,
2013-05-23 04:22:00,38.0,31.0,-100.00,NE,34,6.0,16.0,76,0.00,,,0.11,0.000000,,2013-05-23 09:22:00,
2013-05-23 04:33:00,38.0,31.0,-100.00,NE,34,6.0,16.0,76,0.00,,,0.11,0.000000,,2013-05-23 09:33:00,
2013-05-23 04:42:00,38.0,31.0,-100.00,NE,34,6.0,16.0,76,0.00,,,0.11,0.000000,,2013-05-23 09:42:00,
2013-05-23 04:53:00,38.0,31.0,-100.00,NE,34,6.0,16.0,76,0.00,,,0.11,0.000000,,2013-05-23 09:53:00,
2013-05-23 05:02:00,36.0,30.0,-100.00,NE,42,6.0,14.0,80,0.00,,,0.10,0.000000,,2013-05-23 10:02:00,
2013-05-23 05:22:00,36.0,30.0,-100.00,NE,42,6.0,14.0,80,0.00,,,0.10,0.000000,,2013-05-23 10:22:00,
2013-05-23 05:32:00,36.0,30.0,-100.00,NE,42,6.0,14.0,80,0.00,,,0.10,0.000000,,2013-05-23 10:32:00,
2013-05-23 05:42:00,36.0,30.0,-100.00,NE,42,6.0,14.0,80,0.00,,,0.10,0.000000,,2013-05-23 10:42:00,
2013-05-23 05:52:00,36.0,30.0,-100.00,NE,42,6.0,14.0,80,0.00,,,0.10,0.000000,,2013-05-23 10:52:00,
2013-05-23 06:22:00,35.0,31.0,-100.00,NE,34,6.0,16.0,85,0.00,,,0.10,9.000000,,2013-05-23 11:22:00,
2013-05-23 06:32:00,35.0,31.0,-100.00,NE,34,6.0,16.0,85,0.00,,,0.10,9.000000,,2013-05-23 11:32:00,
2013-05-23 06:42:00,35.0,31.0,-100.00,NE,34,6.0,16.0,85,0.00,,,0.10,9.000000,,2013-05-23 11:42:00,
2013-05-23 06:52:00,35.0,31.0,-100.00,NE,34,6.0,16.0,85,0.00,,,0.10,9.000000,,2013-05-23 11:52:00,
2013-05-23 07:01:00,35.0,31.0,-100.00,NE,34,6.0,16.0,85,0.00,,,0.10,9.000000,,2013-05-23 12:01:00,
2013-05-23 07:22:00,38.0,30.0,-100.00,NNE,32,7.0,17.0,74,0.00,,,0.09,118.000000,,2013-05-23 12:22:00,
2013-05-23 07:32:00,38.0,30.0,-100.00,NNE,32,7.0,17.0,74,0.00,,,0.09,118.000000,,2013-05-23 12:32:00,
2013-05-23 07:42:00,38.0,30.0,-100.00,NNE,32,7.0,17.0,74,0.00,,,0.09,118.000000,,2013-05-23 12:42:00,
2013-05-23 07:52:00,38.0,30.0,-100.00,NNE,32,7.0,17.0,74,0.00,,,0.09,118.000000,,2013-05-23 12:52:00,
2013-05-23 08:01:00,38.0,30.0,-100.00,NNE,32,7.0,17.0,74,0.00,,,0.09,118.000000,,2013-05-23 13:01:00,
2013-05-23 08:22:00,40.0,30.0,-100.00,NNE,15,6.0,15.0,68,0.00,,,0.09,347.000000,,2013-05-23 13:22:00,
2013-05-23 08:32:00,40.0,30.0,-100.00,NNE,15,6.0,15.0,68,0.00,,,0.09,347.000000,,2013-05-23 13:32:00,
2013-05-23 08:42:00,40.0,30.0,-100.00,NNE,15,6.0,15.0,68,0.00,,,0.09,347.000000,,2013-05-23 13:42:00,
2013-05-23 08:52:00,40.0,30.0,-100.00,NNE,15,6.0,15.0,68,0.00,,,0.09,347.000000,,2013-05-23 13:52:00,
2013-05-23 09:01:00,40.0,30.0,-100.00,NNE,15,6.0,15.0,68,0.00,,,0.09,347.000000,,2013-05-23 14:01:00,
2013-05-23 09:21:00,42.0,31.0,-100.00,NE,49,5.0,18.0,65,0.00,,,0.09,516.000000,,2013-05-23 14:21:00,
2013-05-23 09:32:00,42.0,31.0,-100.00,NE,49,5.0,18.0,65,0.00,,,0.09,516.000000,,2013-05-23 14:32:00,
2013-05-23 09:42:00,42.0,31.0,-100.00,NE,49,5.0,18.0,65,0.00,,,0.09,516.000000,,2013-05-23 14:42:00,
2013-05-23 09:52:00,42.0,31.0,-100.00,NE,49,5.0,18.0,65,0.00,,,0.09,516.000000,,2013-05-23 14:52:00,
2013-05-23 10:01:00,42.0,31.0,-100.00,NE,49,5.0,18.0,65,0.00,,,0.09,516.000000,,2013-05-23 15:01:00,
2013-05-23 10:02:00,43.0,31.0,-100.00,NE,38,6.0,17.0,63,0.00,,,0.09,760.000000,,2013-05-23 15:02:00,
2013-05-23 10:22:00,43.0,31.0,-100.00,NE,38,6.0,17.0,63,0.00,,,0.09,760.000000,,2013-05-23 15:22:00,
2013-05-23 10:33:00,43.0,31.0,-100.00,NE,38,6.0,17.0,63,0.00,,,0.09,760.000000,,2013-05-23 15:33:00,
2013-05-23 10:43:00,43.0,31.0,-100.00,NE,38,6.0,17.0,63,0.00,,,0.09,760.000000,,2013-05-23 15:43:00,
2013-05-23 10:53:00,43.0,31.0,-100.00,NE,38,6.0,17.0,63,0.00,,,0.09,760.000000,,2013-05-23 15:53:00,
2013-05-23 11:02:00,44.0,31.0,-100.00,NNE,29,6.0,16.0,61,0.00,,,0.09,857.000000,,2013-05-23 16:02:00,
2013-05-23 11:23:00,44.0,31.0,-100.00,NNE,29,6.0,16.0,61,0.00,,,0.09,857.000000,,2013-05-23 16:23:00,
2013-05-23 11:34:00,44.0,31.0,-100.00,NNE,29,6.0,16.0,61,0.00,,,0.09,857.000000,,2013-05-23 16:34:00,
2013-05-23 11:43:00,44.0,31.0,-100.00,NNE,29,6.0,16.0,61,0.00,,,0.09,857.000000,,2013-05-23 16:43:00,
2013-05-23 11:52:00,44.0,31.0,-100.00,NNE,29,6.0,16.0,61,0.00,,,0.09,857.000000,,2013-05-23 16:52:00,
2013-05-23 12:23:00,45.0,31.0,-100.00,NNW,346,8.0,17.0,57,0.00,,,0.09,1013.000000,,2013-05-23 17:23:00,
2013-05-23 12:33:00,45.0,31.0,-100.00,NNW,346,8.0,17.0,57,0.00,,,0.09,1013.000000,,2013-05-23 17:33:00,
2013-05-23 12:43:00,45.0,31.0,-100.00,NNW,346,8.0,17.0,57,0.00,,,0.09,1013.000000,,2013-05-23 17:43:00,
2013-05-23 12:53:00,45.0,31.0,-100.00,NNW,346,8.0,17.0,57,0.00,,,0.09,1013.000000,,2013-05-23 17:53:00,
2013-05-23 13:01:00,45.0,31.0,-100.00,NNW,346,8.0,17.0,57,0.00,,,0.09,1013.000000,,2013-05-23 18:01:00,
2013-05-23 13:22:00,46.0,29.0,-100.00,NNE,20,7.0,19.0,51,0.00,,,0.09,1094.000000,,2013-05-23 18:22:00,
2013-05-23 13:32:00,46.0,29.0,-100.00,NNE,20,7.0,19.0,51,0.00,,,0.09,1094.000000,,2013-05-23 18:32:00,
2013-05-23 13:42:00,46.0,29.0,-100.00,NNE,20,7.0,19.0,51,0.00,,,0.09,1094.000000,,2013-05-23 18:42:00,
2013-05-23 13:52:00,46.0,29.0,-100.00,NNE,20,7.0,19.0,51,0.00,,,0.09,1094.000000,,2013-05-23 18:52:00,
2013-05-23 14:01:00,46.0,29.0,-100.00,NNE,20,7.0,19.0,51,0.00,,,0.09,1094.000000,,2013-05-23 19:01:00,
2013-05-23 14:02:00,49.0,30.0,-100.00,North,356,7.0,18.0,47,0.00,,,0.09,1138.000000,,2013-05-23 19:02:00,
2013-05-23 14:22:00,49.0,30.0,-100.00,North,356,7.0,18.0,47,0.00,,,0.09,1138.000000,,2013-05-23 19:22:00,
2013-05-23 14:32:00,49.0,30.0,-100.00,North,356,7.0,18.0,47,0.00,,,0.09,1138.000000,,2013-05-23 19:32:00,
2013-05-23 14:42:00,49.0,30.0,-100.00,North,356,7.0,18.0,47,0.00,,,0.09,1138.000000,,2013-05-23 19:42:00,
2013-05-23 14:52:00,49.0,30.0,-100.00,North,356,7.0,18.0,47,0.00,,,0.09,1138.000000,,2013-05-23 19:52:00,
2013-05-23 15:22:00,50.0,26.0,-100.00,NE,49,8.0,19.0,39,0.00,,,0.09,1028.000000,,2013-05-23 20:22:00,
2013-05-23 15:32:00,50.0,26.0,-100.00,NE,49,8.0,19.0,39,0.00,,,0.09,1028.000000,,2013-05-23 20:32:00,
2013-05-23 15:42:00,50.0,26.0,-100.00,NE,49,8.0,19.0,39,0.00,,,0.09,1028.000000,,2013-05-23 20:42:00,
2013-05-23 15:52:00,50.0,26.0,-100.00,NE,49,8.0,19.0,39,0.00,,,0.09,1028.000000,,2013-05-23 20:52:00,
2013-05-23 16:01:00,50.0,26.0,-100.00,NE,49,8.0,19.0,39,0.00,,,0.09,1028.000000,,2013-05-23 21:01:00,
2013-05-23 16:02:00,51.0,26.0,-100.00,North,6,8.0,17.0,38,0.00,,,0.08,909.000000,,2013-05-23 21:02:00,
2013-05-23 16:22:00,51.0,26.0,-100.00,North,6,8.0,17.0,38,0.00,,,0.08,909.000000,,2013-05-23 21:22:00,
2013-05-23 16:33:00,51.0,26.0,-100.00,North,6,8.0,17.0,38,0.00,,,0.08,909.000000,,2013-05-23 21:33:00,
2013-05-23 16:43:00,51.0,26.0,-100.00,North,6,8.0,17.0,38,0.00,,,0.08,909.000000,,2013-05-23 21:43:00,
2013-05-23 16:53:00,51.0,26.0,-100.00,North,6,8.0,17.0,38,0.00,,,0.08,909.000000,,2013-05-23 21:53:00,
2013-05-23 17:23:00,52.0,26.0,-100.00,North,357,7.0,18.0,36,0.00,,,-99.99,756.000000,,2013-05-23 22:23:00,
2013-05-23 17:33:00,52.0,26.0,-100.00,North,357,7.0,18.0,36,0.00,,,-99.99,756.000000,,2013-05-23 22:33:00,
2013-05-23 17:42:00,52.0,26.0,-100.00,North,357,7.0,18.0,36,0.00,,,-99.99,756.000000,,2013-05-23 22:42:00,
2013-05-23 17:52:00,52.0,26.0,-100.00,North,357,7.0,18.0,36,0.00,,,-99.99,756.000000,,2013-05-23 22:52:00,
2013-05-23 18:01:00,52.0,26.0,-100.00,North,357,7.0,18.0,36,0.00,,,-99.99,756.000000,,2013-05-23 23:01:00,
2013-05-23 18:22:00,53.0,24.0,-100.00,NE,34,6.0,15.0,32,0.00,,,0.02,568.000000,,2013-05-23 23:22:00,
2013-05-23 18:32:00,53.0,24.0,-100.00,NE,34,6.0,15.0,32,0.00,,,0.02,568.000000,,2013-05-23 23:32:00,
2013-05-23 18:42:00,53.0,24.0,-100.00,NE,34,6.0,15.0,32,0.00,,,0.02,568.000000,,2013-05-23 23:42:00,
2013-05-23 18:52:00,53.0,24.0,-100.00,NE,34,6.0,15.0,32,0.00,,,0.02,568.000000,,2013-05-23 23:52:00,
2013-05-23 19:01:00,53.0,24.0,-100.00,NE,34,6.0,15.0,32,0.00,,,0.02,568.000000,,2013-05-24 00:01:00,
2013-05-23 19:22:00,52.0,24.0,-100.00,NNE,14,5.0,13.0,33,0.00,,,0.01,359.000000,,2013-05-24 00:22:00,
2013-05-23 19:32:00,52.0,24.0,-100.00,NNE,14,5.0,13.0,33,0.00,,,0.01,359.000000,,2013-05-24 00:32:00,
2013-05-23 19:42:00,52.0,24.0,-100.00,NNE,14,5.0,13.0,33,0.00,,,0.01,359.000000,,2013-05-24 00:42:00,
2013-05-23 19:52:00,52.0,24.0,-100.00,NNE,14,5.0,13.0,33,0.00,,,0.01,359.000000,,2013-05-24 00:52:00,
2013-05-23 20:01:00,52.0,24.0,-100.00,NNE,14,5.0,13.0,33,0.00,,,0.01,359.000000,,2013-05-24 01:01:00,
2013-05-23 20:22:00,48.0,25.0,-100.00,ENE,74,3.0,8.0,41,0.00,,,0.01,141.000000,,2013-05-24 01:22:00,
2013-05-23 20:32:00,48.0,25.0,-100.00,ENE,74,3.0,8.0,41,0.00,,,0.01,141.000000,,2013-05-24 01:32:00,
2013-05-23 20:42:00,48.0,25.0,-100.00,ENE,74,3.0,8.0,41,0.00,,,0.01,141.000000,,2013-05-24 01:42:00,
2013-05-23 20:52:00,48.0,25.0,-100.00,ENE,74,3.0,8.0,41,0.00,,,0.01,141.000000,,2013-05-24 01:52:00,
2013-05-23 21:01:00,48.0,25.0,-100.00,ENE,74,3.0,8.0,41,0.00,,,0.01,141.000000,,2013-05-24 02:01:00,
2013-05-23 21:02:00,38.0,31.0,-100.00,ENE,73,0.0,4.0,76,0.00,,,0.01,9.000000,,2013-05-24 02:02:00,
2013-05-23 21:22:00,38.0,31.0,-100.00,ENE,73,0.0,4.0,76,0.00,,,0.01,9.000000,,2013-05-24 02:22:00,
2013-05-23 21:32:00,38.0,31.0,-100.00,ENE,73,0.0,4.0,76,0.00,,,0.01,9.000000,,2013-05-24 02:32:00,
2013-05-23 21:42:00,38.0,31.0,-100.00,ENE,73,0.0,4.0,76,0.00,,,0.01,9.000000,,2013-05-24 02:42:00,
2013-05-23 21:52:00,38.0,31.0,-100.00,ENE,73,0.0,4.0,76,0.00,,,0.01,9.000000,,2013-05-24 02:52:00,
2013-05-23 22:02:00,33.0,30.0,-100.00,NNW,346,0.0,0.0,90,0.00,,,0.00,0.000000,,2013-05-24 03:02:00,
2013-05-23 22:22:00,33.0,30.0,-100.00,NNW,346,0.0,0.0,90,0.00,,,0.00,0.000000,,2013-05-24 03:22:00,
2013-05-23 22:33:00,33.0,30.0,-100.00,NNW,346,0.0,0.0,90,0.00,,,0.00,0.000000,,2013-05-24 03:33:00,
2013-05-23 22:42:00,33.0,30.0,-100.00,NNW,346,0.0,0.0,90,0.00,,,0.00,0.000000,,2013-05-24 03:42:00,
2013-05-23 22:53:00,33.0,30.0,-100.00,NNW,346,0.0,0.0,90,0.00,,,0.00,0.000000,,2013-05-24 03:53:00,
2013-05-23 23:02:00,30.0,29.0,-100.00,NNE,20,0.0,0.0,95,0.00,,,0.00,0.000000,,2013-05-24 04:02:00,
2013-05-23 23:23:00,30.0,29.0,-100.00,NNE,20,0.0,0.0,95,0.00,,,0.00,0.000000,,2013-05-24 04:23:00,
2013-05-23 23:33:00,30.0,29.0,-100.00,NNE,20,0.0,0.0,95,0.00,,,0.00,0.000000,,2013-05-24 04:33:00,
2013-05-23 23:42:00,30.0,29.0,-100.00,NNE,20,0.0,0.0,95,0.00,,,0.00,0.000000,,2013-05-24 04:42:00,
2013-05-23 23:53:00,30.0,29.0,-100.00,NNE,20,0.0,0.0,95,0.00,,,0.00,0.000000,,2013-05-24 04:53:00,